Time;durP1;ratioP1;P1;durP2;ratioP2;P2;SDS_P1;SDS_P2;PMS_P1;PMS_P2;Temp;Humidity;BMP_temperature;BMP_pressure;BME280_temperature;BME280_humidity;BME280_pressure;Samples;Min_cycle;Max_cycle;Signal;HPM_P1;HPM_P2
2021/10/23 00:01:01;;;;;;;4.55;2.38;;;;;;;15.15;48.09;102022.34;4989376;28;20121;-66
2021/10/23 00:03:28;;;;;;;4.43;2.53;;;;;;;15.13;48.16;102016.09;4988942;28;20530;-66
2021/10/23 00:05:54;;;;;;;5.45;2.60;;;;;;;15.11;48.20;102024.41;4988012;28;20157;-66
2021/10/23 00:08:21;;;;;;;5.28;2.60;;;;;;;15.09;47.96;102026.34;4986453;28;20058;-66
2021/10/23 00:10:48;;;;;;;4.20;2.78;;;;;;;15.07;48.07;102027.47;4986533;28;20074;-66
2021/10/23 00:13:14;;;;;;;4.43;2.95;;;;;;;15.06;47.91;102032.06;4988723;28;20117;-66
2021/10/23 00:15:41;;;;;;;4.18;2.38;;;;;;;15.04;48.33;102038.59;4988178;28;20474;-66
2021/10/23 00:18:08;;;;;;;4.18;2.63;;;;;;;15.02;47.95;102046.91;4988875;28;20704;-66
2021/10/23 00:20:34;;;;;;;5.20;2.60;;;;;;;15.01;48.06;102045.13;4990067;28;20450;-66
2021/10/23 00:23:01;;;;;;;4.65;2.80;;;;;;;15.00;48.05;102047.97;4984439;28;20088;-66
2021/10/23 00:25:28;;;;;;;4.57;2.60;;;;;;;14.98;48.34;102042.63;4988959;28;20133;-66
2021/10/23 00:27:55;;;;;;;4.55;2.88;;;;;;;14.98;48.20;102049.94;4988067;28;20082;-66
2021/10/23 00:30:23;;;;;;;5.38;2.88;;;;;;;14.97;48.25;102042.72;4992282;28;20058;-66
2021/10/23 00:32:50;;;;;;;5.15;2.83;;;;;;;14.95;48.14;102037.34;4992934;28;20124;-66
2021/10/23 00:35:17;;;;;;;6.22;3.25;;;;;;;14.95;48.20;102052.88;4990905;28;20109;-66
2021/10/23 00:37:43;;;;;;;4.55;2.78;;;;;;;14.95;48.09;102052.88;4993158;28;20066;-66
2021/10/23 00:40:11;;;;;;;5.68;3.15;;;;;;;14.94;48.08;102059.31;4991016;28;20096;-66
2021/10/23 00:42:37;;;;;;;6.95;3.50;;;;;;;14.93;48.49;102063.03;4993912;28;20097;-66
2021/10/23 00:45:04;;;;;;;5.03;3.00;;;;;;;14.92;48.51;102069.47;4991853;28;20081;-66
2021/10/23 00:47:31;;;;;;;6.63;3.67;;;;;;;14.91;48.12;102062.25;4987858;28;20078;-66
2021/10/23 00:49:58;;;;;;;4.88;3.33;;;;;;;14.89;48.44;102065.09;4996873;28;20069;-66
2021/10/23 00:52:25;;;;;;;6.57;3.55;;;;;;;14.90;48.42;102074.19;4997427;28;20129;-66
2021/10/23 00:54:52;;;;;;;6.47;3.55;;;;;;;14.89;48.94;102075.16;5006308;28;20481;-66
2021/10/23 00:57:20;;;;;;;5.95;3.45;;;;;;;14.89;48.80;102075.16;4992390;28;20417;-66
2021/10/23 00:59:47;;;;;;;6.15;3.17;;;;;;;14.88;48.60;102079.75;4991003;28;20056;-66
2021/10/23 01:02:14;;;;;;;6.00;3.85;;;;;;;14.88;48.67;102077.03;4983936;28;20473;-66
2021/10/23 01:04:42;;;;;;;5.82;3.53;;;;;;;14.88;48.28;102085.22;4990531;28;20073;-66
2021/10/23 01:07:08;;;;;;;7.88;4.25;;;;;;;14.87;48.56;102088.06;4988387;28;20077;-66
2021/10/23 01:09:38;;;;;;;6.22;3.67;;;;;;;14.89;48.60;102088.84;4972191;28;20513;-66
2021/10/23 01:12:11;;;;;;;7.10;3.92;;;;;;;14.89;48.57;102083.38;4992673;28;20129;-66
2021/10/23 01:14:39;;;;;;;7.18;3.88;;;;;;;14.86;48.55;102089.91;4990761;28;20058;-66
2021/10/23 01:17:06;;;;;;;6.68;3.65;;;;;;;14.85;48.32;102086.28;4985572;28;20387;-66
2021/10/23 01:19:34;;;;;;;6.50;4.25;;;;;;;14.84;48.44;102081.81;4983040;28;20069;-66
2021/10/23 01:22:01;;;;;;;5.47;3.67;;;;;;;14.84;48.64;102080.91;4992952;28;20073;-66
2021/10/23 01:24:28;;;;;;;7.35;4.03;;;;;;;14.84;48.75;102086.38;4981071;28;20136;-65
2021/10/23 01:26:55;;;;;;;6.10;4.03;;;;;;;14.83;48.55;102080.03;4990643;28;20084;-66
2021/10/23 01:29:22;;;;;;;6.30;4.03;;;;;;;14.82;48.73;102086.47;4990516;28;20445;-66
2021/10/23 01:31:50;;;;;;;8.55;5.32;;;;;;;14.83;48.68;102090.97;4990341;28;20129;-66
2021/10/23 01:34:20;;;;;;;8.70;4.68;;;;;;;14.83;48.79;102092.81;4973675;28;20141;-65
2021/10/23 01:36:50;;;;;;;7.72;4.32;;;;;;;14.84;48.75;102094.59;4991834;28;20104;-66
2021/10/23 01:39:17;;;;;;;7.65;4.78;;;;;;;14.83;48.74;102090.97;4990565;28;20058;-65
2021/10/23 01:41:44;;;;;;;6.75;4.70;;;;;;;14.82;48.59;102086.47;4991962;28;20705;-66
2021/10/23 01:44:13;;;;;;;6.75;4.68;;;;;;;14.84;48.88;102081.81;4987742;28;20042;-66
2021/10/23 01:46:40;;;;;;;7.70;4.72;;;;;;;14.83;48.63;102080.03;4989717;28;20085;-66
2021/10/23 01:49:08;;;;;;;7.53;4.43;;;;;;;14.84;48.84;102073.59;5005866;28;20058;-66
2021/10/23 01:51:36;;;;;;;9.20;4.65;;;;;;;14.85;49.03;102069.88;5004419;28;20045;-66
2021/10/23 01:54:04;;;;;;;8.52;4.88;;;;;;;14.85;48.68;102071.75;4973846;28;20086;-65
2021/10/23 01:56:32;;;;;;;6.68;4.70;;;;;;;14.85;48.95;102077.22;4989526;28;20085;-66
2021/10/23 01:58:59;;;;;;;8.75;4.95;;;;;;;14.84;49.05;102076.31;4990644;28;20054;-66
2021/10/23 02:01:26;;;;;;;6.88;4.60;;;;;;;14.85;48.75;102071.75;4992041;28;20536;-66
2021/10/23 02:03:53;;;;;;;7.03;4.60;;;;;;;14.85;49.01;102063.53;4974255;28;20093;-66
2021/10/23 02:06:20;;;;;;;8.80;5.10;;;;;;;14.86;48.79;102070.75;4991396;28;20230;-66
2021/10/23 02:08:47;;;;;;;7.50;4.80;;;;;;;14.87;49.10;102060.72;4989136;28;20461;-66
2021/10/23 02:11:14;;;;;;;7.85;4.75;;;;;;;14.87;48.94;102057.97;4990316;28;20081;-66
2021/10/23 02:13:41;;;;;;;9.80;4.85;;;;;;;14.88;49.14;102057.00;4990470;28;20054;-65
2021/10/23 02:16:08;;;;;;;7.53;5.28;;;;;;;14.87;48.89;102053.38;4991545;28;20085;-66
2021/10/23 02:18:35;;;;;;;7.13;4.53;;;;;;;14.88;49.17;102052.41;4990780;28;20209;-66
2021/10/23 02:21:02;;;;;;;8.15;5.13;;;;;;;14.89;48.92;102047.81;4990772;28;20100;-66
2021/10/23 02:23:29;;;;;;;8.85;4.95;;;;;;;14.88;48.96;102048.78;4987189;28;20148;-66
2021/10/23 02:25:55;;;;;;;8.45;5.57;;;;;;;14.88;48.90;102049.69;4990299;28;20109;-66
2021/10/23 02:28:22;;;;;;;7.50;5.20;;;;;;;14.88;49.23;102048.78;4990208;28;20178;-66
2021/10/23 02:30:48;;;;;;;8.60;5.15;;;;;;;14.88;48.82;102049.69;4991161;28;20500;-66
2021/10/23 02:33:15;;;;;;;8.98;5.25;;;;;;;14.87;48.89;102047.91;4989871;28;20272;-66
2021/10/23 02:35:42;;;;;;;10.32;4.78;;;;;;;14.88;49.06;102054.25;4990782;28;20486;-66
2021/10/23 02:38:10;;;;;;;7.78;4.57;;;;;;;14.85;49.19;102067.16;4985419;28;20084;-66
2021/10/23 02:40:38;;;;;;;9.20;5.05;;;;;;;14.87;49.02;102063.44;4987857;28;20551;-66
2021/10/23 02:43:05;;;;;;;7.75;4.82;;;;;;;14.84;48.88;102057.19;4989617;28;20111;-66
2021/10/23 02:45:32;;;;;;;8.35;4.68;;;;;;;14.84;48.96;102050.84;4991305;28;20141;-66
2021/10/23 02:47:59;;;;;;;8.40;5.18;;;;;;;14.83;48.91;102047.22;4982139;28;20046;-66
2021/10/23 02:50:27;;;;;;;8.60;5.32;;;;;;;14.82;48.91;102050.94;4990331;28;20130;-65
2021/10/23 02:52:54;;;;;;;8.05;5.25;;;;;;;14.81;48.84;102054.69;4985521;28;20114;-66
2021/10/23 02:55:21;;;;;;;9.80;5.82;;;;;;;14.82;48.92;102063.75;4990192;28;20050;-66
2021/10/23 02:57:48;;;;;;;8.52;5.25;;;;;;;14.81;48.85;102062.00;4971147;28;20050;-66
2021/10/23 03:00:15;;;;;;;9.13;4.95;;;;;;;14.79;49.12;102067.56;4989773;28;20147;-66
2021/10/23 03:02:41;;;;;;;8.77;5.18;;;;;;;14.79;49.00;102080.34;4991306;28;20046;-66
2021/10/23 03:05:08;;;;;;;9.23;5.13;;;;;;;14.77;49.03;102083.19;4985510;28;20497;-66
2021/10/23 03:07:35;;;;;;;8.25;5.00;;;;;;;14.77;48.89;102085.91;4990314;28;20081;-66
2021/10/23 03:10:02;;;;;;;9.60;5.03;;;;;;;14.78;48.86;102086.78;4988219;28;20046;-66
2021/10/23 03:12:29;;;;;;;8.98;5.75;;;;;;;14.76;49.38;102092.34;4980848;28;20078;-66
2021/10/23 03:14:56;;;;;;;8.43;5.55;;;;;;;14.76;49.29;102105.16;4988937;28;20128;-66
2021/10/23 03:17:22;;;;;;;9.50;5.88;;;;;;;14.75;49.38;102104.25;4989005;28;20137;-66
2021/10/23 03:19:49;;;;;;;9.68;6.00;;;;;;;14.74;49.52;102102.50;4995546;28;20085;-66
2021/10/23 03:22:16;;;;;;;9.25;5.85;;;;;;;14.73;49.38;102094.44;4990507;28;20046;-66
2021/10/23 03:24:42;;;;;;;10.10;5.82;;;;;;;14.72;49.13;102096.28;4988478;28;20417;-66
2021/10/23 03:27:09;;;;;;;9.15;5.63;;;;;;;14.72;49.13;102103.59;4989670;28;20162;-66
2021/10/23 03:29:36;;;;;;;9.77;6.20;;;;;;;14.71;49.41;102113.66;4987900;28;20121;-66
2021/10/23 03:32:03;;;;;;;8.60;5.45;;;;;;;14.71;49.18;102110.91;4988547;28;20038;-66
2021/10/23 03:34:29;;;;;;;9.77;5.78;;;;;;;14.71;49.12;102110.91;4988805;28;20137;-66
2021/10/23 03:36:56;;;;;;;10.27;5.97;;;;;;;14.70;49.12;102121.94;4987045;28;20141;-66
2021/10/23 03:39:23;;;;;;;10.63;6.15;;;;;;;14.69;49.29;102121.06;4987651;28;20061;-66
2021/10/23 03:41:49;;;;;;;8.88;5.53;;;;;;;14.69;49.44;102123.81;4972896;28;20050;-66
2021/10/23 03:44:16;;;;;;;8.63;5.63;;;;;;;14.67;49.15;102125.75;4989190;28;20088;-66
2021/10/23 03:46:42;;;;;;;8.00;6.00;;;;;;;14.68;49.20;102134.81;4996157;28;20137;-66
2021/10/23 03:49:09;;;;;;;10.40;6.15;;;;;;;14.66;49.11;102126.72;5006099;28;20050;-66
2021/10/23 03:51:36;;;;;;;10.48;6.57;;;;;;;14.65;49.50;102130.47;4991229;28;20145;-66
2021/10/23 03:54:02;;;;;;;10.13;6.28;;;;;;;14.64;49.14;102128.69;4991216;28;20113;-66
2021/10/23 03:56:29;;;;;;;10.85;6.72;;;;;;;14.64;49.49;102123.22;4989118;28;20555;-66
2021/10/23 03:58:55;;;;;;;10.88;6.40;;;;;;;14.64;49.11;102127.81;4988122;28;20502;-66
2021/10/23 04:01:22;;;;;;;10.88;6.72;;;;;;;14.64;49.32;102122.34;4988794;28;20081;-66
2021/10/23 04:03:49;;;;;;;10.35;6.05;;;;;;;14.64;49.33;102115.03;4988566;28;20088;-66
2021/10/23 04:06:16;;;;;;;10.48;6.50;;;;;;;14.63;49.32;102102.34;4989069;28;20113;-66
2021/10/23 04:08:43;;;;;;;9.73;6.57;;;;;;;14.62;49.23;102102.44;4988215;28;20054;-66
2021/10/23 04:11:10;;;;;;;8.98;6.28;;;;;;;14.63;49.66;102099.59;4989516;28;20046;-66
2021/10/23 04:13:37;;;;;;;10.45;6.25;;;;;;;14.63;49.32;102102.34;4984181;28;20085;-66
2021/10/23 04:16:04;;;;;;;9.65;5.68;;;;;;;14.64;49.29;102115.03;4988061;28;20481;-66
2021/10/23 04:18:30;;;;;;;11.77;6.38;;;;;;;14.63;49.46;102117.84;4989706;28;20085;-66
2021/10/23 04:20:58;;;;;;;9.18;6.25;;;;;;;14.63;49.11;102118.72;4988656;28;20104;-66
2021/10/23 04:23:24;;;;;;;9.30;5.90;;;;;;;14.62;49.02;102133.38;4988950;28;20085;-66
2021/10/23 04:25:51;;;;;;;10.77;6.53;;;;;;;14.61;49.06;102128.00;4984629;28;20450;-66
2021/10/23 04:28:17;;;;;;;11.45;6.28;;;;;;;14.61;49.26;102142.53;4988680;28;20082;-66
2021/10/23 04:30:44;;;;;;;10.13;6.60;;;;;;;14.59;48.86;102135.41;4988297;28;20132;-66
2021/10/23 04:33:10;;;;;;;11.45;6.93;;;;;;;14.58;48.87;102131.78;4988636;28;20077;-66
2021/10/23 04:35:37;;;;;;;8.70;5.40;;;;;;;14.57;48.89;102130.06;4987569;28;20082;-66
2021/10/23 04:38:03;;;;;;;10.05;6.57;;;;;;;14.56;49.06;102135.63;4986334;28;20120;-66
2021/10/23 04:40:30;;;;;;;10.40;6.65;;;;;;;14.54;49.08;102141.19;4988327;28;20128;-66
2021/10/23 04:42:57;;;;;;;11.60;6.60;;;;;;;14.52;49.30;102134.94;4988436;28;20070;-66
2021/10/23 04:45:23;;;;;;;10.20;7.28;;;;;;;14.52;48.95;102134.94;4987810;28;20493;-66
2021/10/23 04:47:50;;;;;;;11.25;6.60;;;;;;;14.51;49.21;102140.47;4987006;28;20141;-67
2021/10/23 04:50:16;;;;;;;10.30;6.45;;;;;;;14.50;49.20;102136.88;4986471;28;20085;-66
2021/10/23 04:52:43;;;;;;;10.27;6.85;;;;;;;14.49;48.99;102132.41;4988824;28;20074;-66
2021/10/23 04:55:09;;;;;;;13.60;7.40;;;;;;;14.48;49.49;102133.38;4987560;28;20571;-66
2021/10/23 04:57:36;;;;;;;10.63;6.70;;;;;;;14.48;49.20;102129.75;4988530;28;20058;-66
2021/10/23 05:00:04;;;;;;;11.65;6.65;;;;;;;14.47;49.30;102137.06;4985925;28;20078;-66
2021/10/23 05:02:30;;;;;;;11.30;6.93;;;;;;;14.46;49.44;102132.59;4985988;28;20097;-66
2021/10/23 05:04:57;;;;;;;10.70;6.72;;;;;;;14.45;49.06;102134.44;4985995;28;20464;-66
2021/10/23 05:07:24;;;;;;;11.50;6.97;;;;;;;14.44;49.32;102129.06;4987356;28;20486;-66
2021/10/23 05:09:50;;;;;;;9.60;7.05;;;;;;;14.43;48.87;102136.38;4987381;28;20051;-66
2021/10/23 05:12:17;;;;;;;10.40;6.65;;;;;;;14.42;49.31;102140.09;4983763;28;20149;-66
2021/10/23 05:14:43;;;;;;;12.13;6.65;;;;;;;14.41;49.29;102141.06;4988913;28;20062;-66
2021/10/23 05:17:10;;;;;;;11.60;7.63;;;;;;;14.40;49.01;102149.38;4992204;28;20078;-66
2021/10/23 05:19:37;;;;;;;11.93;6.63;;;;;;;14.38;48.84;102146.72;4991675;28;20133;-66
2021/10/23 05:22:03;;;;;;;11.65;7.40;;;;;;;14.37;49.23;102149.53;4991716;28;20081;-66
2021/10/23 05:24:30;;;;;;;10.73;7.00;;;;;;;14.35;49.08;102144.16;4990750;28;20050;-66
2021/10/23 05:26:56;;;;;;;11.77;7.93;;;;;;;14.33;48.81;102142.50;4991777;28;20086;-66
2021/10/23 05:29:23;;;;;;;12.57;7.47;;;;;;;14.30;48.90;102140.84;4991184;28;20089;-66
2021/10/23 05:31:50;;;;;;;12.27;6.80;;;;;;;14.29;48.87;102147.25;4991564;28;20134;-66
2021/10/23 05:34:17;;;;;;;12.52;7.35;;;;;;;14.27;49.04;102143.75;4982179;28;20086;-66
2021/10/23 05:36:43;;;;;;;10.80;7.30;;;;;;;14.25;48.97;102145.69;4991532;28;20117;-66
2021/10/23 05:39:10;;;;;;;10.20;6.82;;;;;;;14.23;48.98;102138.56;4987903;28;20043;-66
2021/10/23 05:41:37;;;;;;;13.15;7.05;;;;;;;14.20;48.75;102155.13;4992161;28;20474;-66
2021/10/23 05:44:04;;;;;;;12.63;7.35;;;;;;;14.17;48.60;102150.72;4973654;28;20442;-66
2021/10/23 05:46:31;;;;;;;12.00;7.50;;;;;;;14.15;48.78;102149.97;4991446;28;20269;-66
2021/10/23 05:48:57;;;;;;;9.75;6.65;;;;;;;14.12;48.69;102152.00;4990123;28;20052;-66
2021/10/23 05:51:25;;;;;;;12.07;7.38;;;;;;;14.09;48.57;102153.94;4989068;28;20046;-66
2021/10/23 05:53:52;;;;;;;11.20;7.63;;;;;;;14.07;48.76;102155.03;4978209;28;20078;-66
2021/10/23 05:56:18;;;;;;;10.50;6.65;;;;;;;14.04;49.10;102161.53;4990104;28;20494;-66
2021/10/23 05:58:45;;;;;;;12.57;7.28;;;;;;;14.01;48.61;102167.19;4991429;28;20149;-67
2021/10/23 06:01:12;;;;;;;12.27;7.28;;;;;;;14.00;48.58;102170.03;4991074;28;20046;-65
2021/10/23 06:03:39;;;;;;;10.52;7.03;;;;;;;13.96;48.87;102174.78;4945964;28;20125;-66
2021/10/23 06:06:08;;;;;;;12.40;7.63;;;;;;;13.95;48.42;102172.13;4991037;28;20062;-66
2021/10/23 06:08:35;;;;;;;11.13;7.15;;;;;;;13.93;48.40;102174.06;4967324;28;20152;-66
2021/10/23 06:11:03;;;;;;;10.43;6.93;;;;;;;13.90;48.63;102183.34;4991581;28;20046;-66
2021/10/23 06:13:32;;;;;;;12.18;6.97;;;;;;;13.89;48.51;102187.03;4991365;28;20103;-66
2021/10/23 06:15:58;;;;;;;12.35;7.07;;;;;;;13.86;48.38;102191.78;4988634;28;20504;-66
2021/10/23 06:18:26;;;;;;;13.82;8.07;;;;;;;13.84;48.73;102194.59;4995677;28;20394;-66
2021/10/23 06:20:52;;;;;;;13.00;8.02;;;;;;;13.81;48.72;102197.53;4990419;28;20058;-65
2021/10/23 06:23:19;;;;;;;12.35;7.43;;;;;;;13.79;48.58;102204.94;4989670;28;20477;-65
2021/10/23 06:25:45;;;;;;;13.25;7.72;;;;;;;13.76;48.36;102201.50;4990220;28;20112;-66
2021/10/23 06:28:12;;;;;;;13.20;7.85;;;;;;;13.74;48.54;102200.72;4990073;28;20062;-66
2021/10/23 06:30:39;;;;;;;13.07;7.38;;;;;;;13.71;48.83;102197.19;4991567;28;20481;-66
2021/10/23 06:33:24;;;;;;;12.57;8.23;;;;;;;13.69;48.82;102204.59;4990653;28;20049;-66
2021/10/23 06:35:51;;;;;;;12.98;7.40;;;;;;;13.65;48.57;102199.41;4990026;28;20509;-66
2021/10/23 06:38:17;;;;;;;11.40;7.15;;;;;;;13.62;48.74;102200.47;4989879;28;20112;-66
2021/10/23 06:40:44;;;;;;;12.32;7.88;;;;;;;13.61;48.72;102208.72;4990952;28;20088;-66
2021/10/23 06:43:11;;;;;;;12.88;7.78;;;;;;;13.61;49.00;102216.91;4989517;28;20042;-66
2021/10/23 06:45:38;;;;;;;13.07;8.10;;;;;;;13.58;48.69;102214.38;4991307;28;20517;-66
2021/10/23 06:48:06;;;;;;;10.73;6.70;;;;;;;13.58;48.98;102214.38;5002852;28;20050;-66
2021/10/23 06:50:33;;;;;;;12.85;7.78;;;;;;;13.57;49.10;102238.06;4990598;28;20150;-66
2021/10/23 06:52:59;;;;;;;11.80;7.65;;;;;;;13.57;49.04;102239.91;4989683;28;20142;-66
2021/10/23 06:55:26;;;;;;;13.18;8.45;;;;;;;13.56;48.74;102239.03;4973448;28;20097;-66
2021/10/23 06:57:52;;;;;;;13.10;7.80;;;;;;;13.54;49.01;102240.94;4989519;28;21289;-66
2021/10/23 07:00:22;;;;;;;12.48;7.88;;;;;;;13.54;48.57;102248.25;4989874;28;20137;-66
2021/10/23 07:02:49;;;;;;;13.43;8.27;;;;;;;13.53;49.17;102247.38;4990620;28;20038;-66
2021/10/23 07:05:18;;;;;;;12.75;7.53;;;;;;;13.53;48.93;102258.28;4988512;28;20050;-66
2021/10/23 07:07:44;;;;;;;12.55;7.40;;;;;;;13.50;49.22;102260.31;4990020;28;20411;-66
2021/10/23 07:10:11;;;;;;;13.90;7.93;;;;;;;13.49;49.02;102267.63;4988820;28;20125;-66
2021/10/23 07:12:39;;;;;;;16.60;8.85;;;;;;;13.48;49.09;102276.78;4989458;28;20379;-66
2021/10/23 07:15:07;;;;;;;12.55;8.50;;;;;;;13.47;49.21;102282.31;4989155;28;20049;-66
2021/10/23 07:17:33;;;;;;;12.65;8.15;;;;;;;13.45;49.50;102290.59;4985409;28;20082;-66
2021/10/23 07:20:01;;;;;;;13.48;8.52;;;;;;;13.46;49.66;102295.06;4989985;28;20047;-66
2021/10/23 07:22:27;;;;;;;16.20;8.73;;;;;;;13.46;49.68;102295.06;4990602;28;20094;-66
2021/10/23 07:24:54;;;;;;;16.08;8.15;;;;;;;13.47;49.90;102301.41;4995899;28;20046;-66
2021/10/23 07:27:23;;;;;;;15.57;8.88;;;;;;;13.50;49.95;102301.25;4991359;28;20482;-65
2021/10/23 07:29:50;;;;;;;12.80;8.00;;;;;;;13.48;49.86;102304.06;4990061;28;20050;-66
2021/10/23 07:32:17;;;;;;;14.40;8.35;;;;;;;13.52;49.90;102308.38;4990207;28;20087;-66
2021/10/23 07:34:43;;;;;;;14.73;9.10;;;;;;;13.54;50.22;102308.28;4988828;28;20046;-66
2021/10/23 07:37:13;;;;;;;12.80;8.63;;;;;;;13.59;50.66;102314.34;4983048;28;20054;-66
2021/10/23 07:39:40;;;;;;;13.10;8.27;;;;;;;13.60;50.70;102316.13;4969571;28;20078;-66
2021/10/23 07:42:07;;;;;;;12.90;8.35;;;;;;;13.62;50.50;102326.00;4990787;28;20039;-66
2021/10/23 07:44:35;;;;;;;15.75;8.77;;;;;;;13.65;50.92;102331.28;4989428;28;20046;-66
2021/10/23 07:47:02;;;;;;;13.15;8.30;;;;;;;13.69;50.81;102331.97;4984914;28;20112;-66
2021/10/23 07:49:28;;;;;;;13.45;8.43;;;;;;;13.72;50.68;102334.56;4987108;28;20128;-66
2021/10/23 07:51:55;;;;;;;14.85;8.93;;;;;;;13.76;50.81;102333.38;4988471;28;20137;-66
2021/10/23 07:54:22;;;;;;;15.93;9.15;;;;;;;13.80;50.76;102342.31;4989572;28;20073;-66
2021/10/23 07:56:48;;;;;;;13.98;9.10;;;;;;;13.84;50.97;102344.75;4989404;28;20425;-66
2021/10/23 07:59:15;;;;;;;14.07;9.00;;;;;;;13.87;51.02;102341.88;4971237;28;20089;-66
2021/10/23 08:01:42;;;;;;;12.73;8.00;;;;;;;13.91;50.98;102345.31;4990079;28;20061;-66
2021/10/23 08:04:09;;;;;;;15.07;8.90;;;;;;;13.95;51.12;102335.97;4986764;28;20572;-66
2021/10/23 08:06:36;;;;;;;13.52;8.35;;;;;;;13.99;51.12;102337.56;4986072;28;20104;-66
2021/10/23 08:09:11;;;;;;;13.70;8.50;;;;;;;14.04;50.91;102343.63;4987915;28;20042;-66
2021/10/23 08:11:40;;;;;;;13.85;8.65;;;;;;;14.07;51.31;102344.34;4990174;28;20105;-66
2021/10/23 08:14:07;;;;;;;15.75;9.43;;;;;;;14.10;50.80;102351.47;4987972;28;20125;-66
2021/10/23 08:16:34;;;;;;;15.02;8.95;;;;;;;14.14;51.11;102355.78;4995360;28;20050;-65
2021/10/23 08:19:02;;;;;;;12.52;7.93;;;;;;;14.17;50.93;102355.59;4988772;28;20121;-66
2021/10/23 08:21:28;;;;;;;12.27;7.68;;;;;;;14.20;50.96;102358.16;4989559;28;20505;-66
2021/10/23 08:23:55;;;;;;;13.50;7.72;;;;;;;14.24;50.91;102364.34;4986044;28;20489;-66
2021/10/23 08:26:22;;;;;;;14.48;8.30;;;;;;;14.29;51.14;102373.13;4989277;28;20544;-66
2021/10/23 08:28:48;;;;;;;12.05;7.95;;;;;;;14.31;50.87;102374.81;4988667;28;20124;-66
2021/10/23 08:31:15;;;;;;;13.68;8.13;;;;;;;14.36;50.88;102371.81;4984387;28;20694;-66
2021/10/23 08:33:42;;;;;;;13.98;8.52;;;;;;;14.38;51.13;102373.53;4987654;28;20109;-66
2021/10/23 08:36:09;;;;;;;15.38;8.75;;;;;;;14.43;51.18;102384.16;4988400;28;20054;-66
2021/10/23 08:38:35;;;;;;;12.13;8.27;;;;;;;14.44;50.98;102380.47;4988537;28;20065;-66
2021/10/23 08:41:02;;;;;;;13.15;8.32;;;;;;;14.49;51.29;102380.22;4986411;28;20418;-66
2021/10/23 08:43:30;;;;;;;11.48;7.35;;;;;;;14.51;51.05;102381.84;4981040;28;20081;-66
2021/10/23 08:45:59;;;;;;;12.82;8.02;;;;;;;14.56;51.43;102381.59;4988141;28;20047;-66
2021/10/23 08:48:26;;;;;;;13.13;8.20;;;;;;;14.57;51.30;102381.53;4988660;28;20058;-65
2021/10/23 08:50:53;;;;;;;13.82;8.27;;;;;;;14.62;51.24;102379.38;4992691;28;20086;-66
2021/10/23 08:53:41;;;;;;;12.02;7.85;;;;;;;14.68;51.21;102394.53;4990092;28;20562;-66
2021/10/23 08:56:09;;;;;;;12.43;7.43;;;;;;;14.70;51.25;102396.22;4991692;28;20046;-66
2021/10/23 08:58:37;;;;;;;12.68;7.47;;;;;;;14.73;51.33;102389.69;4974967;28;20089;-65
2021/10/23 09:01:05;;;;;;;11.23;7.53;;;;;;;14.76;50.96;102390.38;4989717;28;20533;-66
2021/10/23 09:03:32;;;;;;;13.45;7.82;;;;;;;14.80;51.13;102396.53;4975955;28;20100;-65
2021/10/23 09:06:00;;;;;;;12.88;7.82;;;;;;;14.84;51.36;102395.38;4991161;28;20069;-66
2021/10/23 09:08:27;;;;;;;12.23;7.50;;;;;;;14.88;51.34;102396.97;4975535;28;20694;-66
2021/10/23 09:11:07;;;;;;;13.00;7.78;;;;;;;14.93;51.20;102402.13;4972286;28;20064;-65
2021/10/23 09:13:37;;;;;;;13.40;8.27;;;;;;;14.97;51.02;102404.63;4992004;28;20478;-65
2021/10/23 09:16:19;;;;;;;12.95;7.82;;;;;;;15.01;51.63;102406.16;4992812;28;20085;-66
2021/10/23 09:18:49;;;;;;;12.63;8.20;;;;;;;15.06;51.52;102419.59;5000146;28;20649;-66
2021/10/23 09:21:23;;;;;;;14.13;8.32;;;;;;;15.10;51.66;102412.94;4991282;28;20468;-66
2021/10/23 09:23:53;;;;;;;12.55;7.68;;;;;;;15.12;51.29;102411.00;4983053;28;20054;-66
2021/10/23 09:26:35;;;;;;;11.95;7.15;;;;;;;15.16;51.65;102412.56;4980978;28;20046;-66
2021/10/23 09:29:19;;;;;;;11.80;7.90;;;;;;;15.17;51.24;102420.69;4991686;28;20046;-66
2021/10/23 09:32:01;;;;;;;12.80;7.82;;;;;;;15.19;51.28;102410.53;4984183;28;20042;-65
2021/10/23 09:34:27;;;;;;;12.02;7.55;;;;;;;15.24;50.96;102413.84;4992700;28;20050;-66
2021/10/23 09:36:55;;;;;;;14.57;9.10;;;;;;;15.30;51.36;102409.88;4986733;28;20548;-65
2021/10/23 09:39:38;;;;;;;12.10;7.55;;;;;;;15.33;51.33;102409.66;4990173;28;20052;-65
2021/10/23 09:42:17;;;;;;;13.25;8.63;;;;;;;15.40;51.09;102416.50;4991600;28;20077;-66
2021/10/23 09:45:04;;;;;;;13.45;8.85;;;;;;;15.44;50.93;102429.03;4992347;28;20453;-66
2021/10/23 09:47:39;;;;;;;13.10;9.18;;;;;;;15.46;50.78;102426.22;4991661;28;20046;-66
2021/10/23 09:50:18;;;;;;;14.05;8.93;;;;;;;15.51;50.94;102421.31;4988787;28;20069;-65
2021/10/23 09:52:54;;;;;;;13.50;9.38;;;;;;;15.55;51.10;102429.31;4996335;28;20543;-66
2021/10/23 09:55:22;;;;;;;13.55;9.07;;;;;;;15.58;51.04;102430.94;4989277;28;20085;-66
2021/10/23 09:58:10;;;;;;;17.85;9.73;;;;;;;15.62;51.12;102427.06;4991571;28;20109;-66
2021/10/23 10:00:38;;;;;;;16.83;10.02;;;;;;;15.64;51.05;102427.84;4989503;28;20520;-66
2021/10/23 10:03:06;;;;;;;13.50;9.27;;;;;;;15.70;51.32;102424.72;4992270;28;20097;-66
2021/10/23 10:05:34;;;;;;;13.95;8.50;;;;;;;15.75;51.13;102432.63;4980185;28;20058;-66
2021/10/23 10:08:21;;;;;;;14.57;8.55;;;;;;;15.79;51.00;102442.41;4988805;28;20097;-66
2021/10/23 10:10:49;;;;;;;14.07;7.13;;;;;;;15.84;51.10;102449.34;4986402;28;20058;-66
2021/10/23 10:13:22;;;;;;;14.65;8.77;;;;;;;15.91;51.14;102439.75;4990767;28;20571;-65
2021/10/23 10:15:49;;;;;;;;;;;;;;;15.69;51.31;102446.72;4990873;28;20133;-66
2021/10/23 10:18:17;;;;;;;11.23;6.93;;;;;;;15.96;51.09;102453.19;4991721;28;19933;-66
2021/10/23 10:20:47;;;;;;;11.20;7.47;;;;;;;16.06;50.71;102445.25;4992027;28;20042;-67
2021/10/23 10:23:19;;;;;;;11.18;7.45;;;;;;;16.10;50.73;102453.16;4990552;28;20046;-66
2021/10/23 10:26:13;;;;;;;11.40;7.15;;;;;;;16.14;50.37;102453.84;4990243;28;20077;-66
2021/10/23 10:29:13;;;;;;;12.70;7.60;;;;;;;16.16;50.38;102454.63;4988561;28;20092;-66
2021/10/23 10:31:44;;;;;;;11.10;6.47;;;;;;;16.20;50.17;102451.59;4997053;28;20461;-66
2021/10/23 10:34:15;;;;;;;10.27;6.65;;;;;;;16.23;50.40;102451.38;4990769;28;20046;-66
2021/10/23 10:37:46;;;;;;;10.55;7.35;;;;;;;16.26;49.96;102448.44;4989393;28;20050;-66
2021/10/23 10:43:07;;;;;;;10.73;6.63;;;;;;;16.29;49.73;102452.84;4990748;28;20075;-66
2021/10/23 10:48:29;;;;;;;8.93;5.70;;;;;;;16.38;49.42;102454.13;4995641;28;20064;-66
2021/10/23 10:51:00;;;;;;;10.90;5.95;;;;;;;16.36;49.66;102457.84;4991131;28;20082;-66
2021/10/23 10:53:38;;;;;;;10.75;5.70;;;;;;;16.42;49.51;102458.41;4989974;28;20149;-66
2021/10/23 10:56:10;;;;;;;7.80;4.75;;;;;;;16.43;49.75;102454.69;4986028;28;20105;-66
2021/10/23 10:58:47;;;;;;;8.10;5.00;;;;;;;16.44;49.75;102457.31;4975172;28;20093;-66
2021/10/23 11:01:21;;;;;;;10.13;5.20;;;;;;;16.47;49.37;102448.03;4993041;28;20049;-66
2021/10/23 11:04:06;;;;;;;8.02;5.45;;;;;;;16.49;49.12;102451.53;4994049;28;20046;-66
2021/10/23 11:06:35;;;;;;;8.90;4.70;;;;;;;16.49;49.39;102446.03;5004397;28;20049;-66
2021/10/23 11:09:10;;;;;;;9.25;5.05;;;;;;;16.52;49.37;102448.59;4991064;28;20493;-66
2021/10/23 11:11:49;;;;;;;7.00;4.22;;;;;;;16.52;49.06;102441.25;4990546;28;20098;-66
2021/10/23 11:14:19;;;;;;;8.77;4.40;;;;;;;16.53;49.57;102444.88;4990793;28;20050;-67
2021/10/23 11:16:52;;;;;;;7.53;4.38;;;;;;;16.53;49.43;102444.88;4999650;28;20050;-65
2021/10/23 11:19:31;;;;;;;8.90;4.63;;;;;;;16.57;49.00;102443.66;4988883;28;20541;-65
2021/10/23 11:22:07;;;;;;;8.30;4.63;;;;;;;16.60;49.12;102446.22;4979816;28;20054;-65
2021/10/23 11:24:48;;;;;;;9.45;4.60;;;;;;;16.63;49.18;102443.31;4985298;28;20085;-65
2021/10/23 11:27:36;;;;;;;9.13;4.63;;;;;;;16.64;48.98;102447.78;4989041;28;20597;-65
2021/10/23 11:30:10;;;;;;;7.20;4.28;;;;;;;16.68;49.13;102447.50;4987404;28;20050;-64
2021/10/23 11:32:44;;;;;;;7.10;3.92;;;;;;;16.69;49.27;102442.88;4990728;28;20050;-65
2021/10/23 11:35:11;;;;;;;6.30;3.63;;;;;;;16.71;49.64;102447.31;4989772;28;20047;-64